This is the latest recevied weather packets stored in our database for station/object KE8KMM. If no packets are shown the sender has not sent any weather packets the latest 10 day(s).
| Time | Temp. | Humidity | Pressure | Rain* | Wind** | Luminosity | Snow |
|---|---|---|---|---|---|---|---|
| 1777894994 | 10.56° C | 73% | 1009.1 hPa | 0 mm | - | 44 W/m² | - |
| 1777894691 | 10° C | 73% | 1009.2 hPa | 0 mm | - | 44 W/m² | - |
| 1777894387 | 10° C | 74% | 1008.9 hPa | 0 mm | - | 38 W/m² | - |
| 1777894085 | 9.44° C | 74% | 1009.1 hPa | 0 mm | - | 35 W/m² | - |
| 1777893782 | 9.44° C | 75% | 1009 hPa | 0 mm | - | 32 W/m² | - |
| 1777893478 | 8.89° C | 75% | 1009 hPa | 0 mm | - | 31 W/m² | - |
| 1777893175 | 7.78° C | 79% | 1009 hPa | 0 mm | - | 28 W/m² | - |
| 1777892871 | 7.78° C | 81% | 1009 hPa | 0 mm | - | 26 W/m² | - |
| 1777892568 | 7.78° C | 79% | 1009.2 hPa | 0 mm | - | 22 W/m² | - |
| 1777892263 | 7.78° C | 81% | 1009 hPa | 0 mm | - | 20 W/m² | - |
| 1777891960 | 7.78° C | 80% | 1009.1 hPa | 0 mm | - | 17 W/m² | - |
| 1777891658 | 6.67° C | 83% | 1009.1 hPa | 0 mm | - | 13 W/m² | - |
| 1777891353 | 7.22° C | 83% | 1009 hPa | 0 mm | - | 10 W/m² | - |
| 1777891044 | 7.22° C | 81% | 1009 hPa | 0 mm | - | 9 W/m² | - |
| 1777890744 | 7.78° C | 78% | 1009.2 hPa | 0 mm | - | 5 W/m² | - |
| 1777890440 | 7.78° C | 79% | 1009.3 hPa | 0 mm | - | 3 W/m² | - |
| 1777890136 | 7.78° C | 80% | 1009 hPa | 0 mm | - | 1 W/m² | - |
| 1777889833 | 7.78° C | 78% | 1009.1 hPa | 0 mm | - | 0 W/m² | - |
| 1777889530 | 8.89° C | 75% | 1009.1 hPa | 0 mm | - | 0 W/m² | - |
| 1777889227 | 8.89° C | 73% | 1009.1 hPa | 0 mm | - | 0 W/m² | - |
| 1777888926 | 8.33° C | 74% | 1009.1 hPa | 0 mm | - | 0 W/m² | - |
| 1777888622 | 8.89° C | 76% | 1009.3 hPa | 0 mm | - | 0 W/m² | - |
| 1777888318 | 8.89° C | 75% | 1009.3 hPa | 0 mm | - | 0 W/m² | - |
| 1777888014 | 8.89° C | 74% | 1009.3 hPa | 0 mm | - | 0 W/m² | - |
| 1777887712 | 8.89° C | 75% | 1009.4 hPa | 0 mm | - | 0 W/m² | - |
* Rain latest hour (hover to see other rain measurements)
** Current wind speed in m/s (hover to see current wind gust speed)